sensor_id;sensor_type;location;lat;lon;timestamp;temperature;humidity
33105;DHT22;19476;51.448;6.674;2023-01-19T00:00:16;8.10;52.20
33105;DHT22;19476;51.448;6.674;2023-01-19T00:02:42;8.00;52.20
33105;DHT22;19476;51.448;6.674;2023-01-19T00:05:10;8.00;52.30
33105;DHT22;19476;51.448;6.674;2023-01-19T00:07:36;8.00;52.30
33105;DHT22;19476;51.448;6.674;2023-01-19T00:10:02;8.00;52.40
33105;DHT22;19476;51.448;6.674;2023-01-19T00:12:28;8.00;52.50
33105;DHT22;19476;51.448;6.674;2023-01-19T00:14:53;8.00;52.50
33105;DHT22;19476;51.448;6.674;2023-01-19T00:17:19;8.00;52.50
33105;DHT22;19476;51.448;6.674;2023-01-19T00:19:46;7.90;52.60
33105;DHT22;19476;51.448;6.674;2023-01-19T00:22:12;7.90;52.70
33105;DHT22;19476;51.448;6.674;2023-01-19T00:24:38;7.90;52.80
33105;DHT22;19476;51.448;6.674;2023-01-19T00:27:03;7.90;52.90
33105;DHT22;19476;51.448;6.674;2023-01-19T00:29:30;7.90;52.90
33105;DHT22;19476;51.448;6.674;2023-01-19T00:32:01;7.90;53.00
33105;DHT22;19476;51.448;6.674;2023-01-19T00:34:27;7.90;53.00
33105;DHT22;19476;51.448;6.674;2023-01-19T00:37:08;7.90;53.50
33105;DHT22;19476;51.448;6.674;2023-01-19T00:39:34;7.90;53.20
33105;DHT22;19476;51.448;6.674;2023-01-19T00:42:00;7.90;53.20
33105;DHT22;19476;51.448;6.674;2023-01-19T00:44:44;7.90;53.20
33105;DHT22;19476;51.448;6.674;2023-01-19T00:47:10;7.80;53.30
33105;DHT22;19476;51.448;6.674;2023-01-19T00:49:36;7.80;53.30
33105;DHT22;19476;51.448;6.674;2023-01-19T00:52:02;7.80;53.30
33105;DHT22;19476;51.448;6.674;2023-01-19T00:54:27;7.80;53.40
33105;DHT22;19476;51.448;6.674;2023-01-19T00:56:53;7.80;53.40
33105;DHT22;19476;51.448;6.674;2023-01-19T00:59:19;7.80;53.40
33105;DHT22;19476;51.448;6.674;2023-01-19T01:01:45;7.90;53.50
33105;DHT22;19476;51.448;6.674;2023-01-19T01:04:10;7.90;53.40
33105;DHT22;19476;51.448;6.674;2023-01-19T01:06:37;7.90;53.40
33105;DHT22;19476;51.448;6.674;2023-01-19T01:09:03;7.90;53.40
33105;DHT22;19476;51.448;6.674;2023-01-19T01:11:37;7.90;53.40
33105;DHT22;19476;51.448;6.674;2023-01-19T01:14:04;8.00;53.60
33105;DHT22;19476;51.448;6.674;2023-01-19T01:16:30;8.00;53.50
33105;DHT22;19476;51.448;6.674;2023-01-19T01:18:56;7.70;53.30
33105;DHT22;19476;51.448;6.674;2023-01-19T01:21:22;8.00;53.40
33105;DHT22;19476;51.448;6.674;2023-01-19T01:23:48;8.00;53.40
33105;DHT22;19476;51.448;6.674;2023-01-19T01:26:13;8.00;53.40
33105;DHT22;19476;51.448;6.674;2023-01-19T01:28:39;8.00;53.40
33105;DHT22;19476;51.448;6.674;2023-01-19T01:31:05;8.00;53.50
33105;DHT22;19476;51.448;6.674;2023-01-19T01:33:31;8.00;53.60
33105;DHT22;19476;51.448;6.674;2023-01-19T01:35:56;8.00;53.60
33105;DHT22;19476;51.448;6.674;2023-01-19T01:38:23;7.80;53.60
33105;DHT22;19476;51.448;6.674;2023-01-19T01:40:48;8.00;53.70
33105;DHT22;19476;51.448;6.674;2023-01-19T01:43:16;8.00;53.70
33105;DHT22;19476;51.448;6.674;2023-01-19T01:45:42;7.90;53.80
33105;DHT22;19476;51.448;6.674;2023-01-19T01:48:09;7.90;53.80
33105;DHT22;19476;51.448;6.674;2023-01-19T01:50:47;7.90;53.80
33105;DHT22;19476;51.448;6.674;2023-01-19T01:53:33;7.90;54.00
33105;DHT22;19476;51.448;6.674;2023-01-19T01:56:05;7.90;53.90
33105;DHT22;19476;51.448;6.674;2023-01-19T01:58:32;7.90;53.90
33105;DHT22;19476;51.448;6.674;2023-01-19T02:00:58;7.90;53.90
33105;DHT22;19476;51.448;6.674;2023-01-19T02:03:42;7.90;54.00
33105;DHT22;19476;51.448;6.674;2023-01-19T02:06:09;7.90;54.00
33105;DHT22;19476;51.448;6.674;2023-01-19T02:08:52;7.90;54.00
33105;DHT22;19476;51.448;6.674;2023-01-19T02:11:37;7.90;54.30
33105;DHT22;19476;51.448;6.674;2023-01-19T02:14:22;7.90;54.10
33105;DHT22;19476;51.448;6.674;2023-01-19T02:16:48;7.90;54.10
33105;DHT22;19476;51.448;6.674;2023-01-19T02:19:20;7.90;54.10
33105;DHT22;19476;51.448;6.674;2023-01-19T02:24:24;7.90;54.40
33105;DHT22;19476;51.448;6.674;2023-01-19T02:26:50;7.90;54.30
33105;DHT22;19476;51.448;6.674;2023-01-19T02:29:21;7.90;54.50
33105;DHT22;19476;51.448;6.674;2023-01-19T02:31:48;7.80;54.60
33105;DHT22;19476;51.448;6.674;2023-01-19T02:34:16;7.80;54.60
33105;DHT22;19476;51.448;6.674;2023-01-19T02:36:51;7.70;54.70
33105;DHT22;19476;51.448;6.674;2023-01-19T02:39:21;7.70;54.80
33105;DHT22;19476;51.448;6.674;2023-01-19T02:41:53;7.70;54.70
33105;DHT22;19476;51.448;6.674;2023-01-19T02:44:20;7.70;55.40
33105;DHT22;19476;51.448;6.674;2023-01-19T02:46:47;7.70;54.70
33105;DHT22;19476;51.448;6.674;2023-01-19T02:49:13;7.70;54.60
33105;DHT22;19476;51.448;6.674;2023-01-19T02:51:42;7.70;54.60
33105;DHT22;19476;51.448;6.674;2023-01-19T03:00:06;7.70;54.70
33105;DHT22;19476;51.448;6.674;2023-01-19T03:02:48;7.70;55.00
33105;DHT22;19476;51.448;6.674;2023-01-19T03:08:22;7.70;54.70
33105;DHT22;19476;51.448;6.674;2023-01-19T03:11:01;7.70;54.90
33105;DHT22;19476;51.448;6.674;2023-01-19T03:13:48;7.70;54.70
33105;DHT22;19476;51.448;6.674;2023-01-19T03:19:07;7.70;54.70
33105;DHT22;19476;51.448;6.674;2023-01-19T03:21:36;7.80;54.70
33105;DHT22;19476;51.448;6.674;2023-01-19T03:24:04;7.80;54.60
33105;DHT22;19476;51.448;6.674;2023-01-19T03:26:38;7.80;54.60
33105;DHT22;19476;51.448;6.674;2023-01-19T03:29:09;7.80;54.60
33105;DHT22;19476;51.448;6.674;2023-01-19T03:31:40;7.70;54.50
33105;DHT22;19476;51.448;6.674;2023-01-19T03:34:10;7.80;54.60
33105;DHT22;19476;51.448;6.674;2023-01-19T03:36:48;7.80;54.60
33105;DHT22;19476;51.448;6.674;2023-01-19T03:39:22;7.80;54.90
33105;DHT22;19476;51.448;6.674;2023-01-19T03:41:51;7.80;54.90
33105;DHT22;19476;51.448;6.674;2023-01-19T03:44:18;7.80;54.80
33105;DHT22;19476;51.448;6.674;2023-01-19T03:46:45;7.80;54.80
33105;DHT22;19476;51.448;6.674;2023-01-19T03:49:12;7.80;55.10
33105;DHT22;19476;51.448;6.674;2023-01-19T03:51:38;7.70;55.10
33105;DHT22;19476;51.448;6.674;2023-01-19T03:54:05;7.70;55.20
33105;DHT22;19476;51.448;6.674;2023-01-19T03:56:32;7.70;55.50
33105;DHT22;19476;51.448;6.674;2023-01-19T03:58:58;7.60;55.40
33105;DHT22;19476;51.448;6.674;2023-01-19T04:01:24;7.60;55.60
33105;DHT22;19476;51.448;6.674;2023-01-19T04:03:51;7.60;55.80
33105;DHT22;19476;51.448;6.674;2023-01-19T04:06:18;7.60;56.10
33105;DHT22;19476;51.448;6.674;2023-01-19T04:08:47;7.60;56.20
33105;DHT22;19476;51.448;6.674;2023-01-19T04:11:13;7.60;56.50
33105;DHT22;19476;51.448;6.674;2023-01-19T04:13:39;7.50;56.50
33105;DHT22;19476;51.448;6.674;2023-01-19T04:16:05;7.50;56.50
33105;DHT22;19476;51.448;6.674;2023-01-19T04:18:32;7.50;56.60
33105;DHT22;19476;51.448;6.674;2023-01-19T04:21:06;7.50;56.90
33105;DHT22;19476;51.448;6.674;2023-01-19T04:23:32;7.40;57.40
33105;DHT22;19476;51.448;6.674;2023-01-19T04:25:59;7.40;57.00
33105;DHT22;19476;51.448;6.674;2023-01-19T04:28:26;7.30;57.30
33105;DHT22;19476;51.448;6.674;2023-01-19T04:30:51;7.30;57.20
33105;DHT22;19476;51.448;6.674;2023-01-19T04:33:18;7.30;57.30
33105;DHT22;19476;51.448;6.674;2023-01-19T04:35:44;7.30;57.70
33105;DHT22;19476;51.448;6.674;2023-01-19T04:38:10;7.20;57.80
33105;DHT22;19476;51.448;6.674;2023-01-19T04:40:36;7.20;57.70
33105;DHT22;19476;51.448;6.674;2023-01-19T04:43:02;7.20;57.80
33105;DHT22;19476;51.448;6.674;2023-01-19T04:45:28;7.20;57.90
33105;DHT22;19476;51.448;6.674;2023-01-19T04:47:53;7.10;57.90
33105;DHT22;19476;51.448;6.674;2023-01-19T04:50:19;7.10;57.90
33105;DHT22;19476;51.448;6.674;2023-01-19T04:52:45;7.10;58.10
33105;DHT22;19476;51.448;6.674;2023-01-19T04:55:11;7.10;58.30
33105;DHT22;19476;51.448;6.674;2023-01-19T04:57:37;7.10;58.20
33105;DHT22;19476;51.448;6.674;2023-01-19T05:00:04;7.10;58.50
33105;DHT22;19476;51.448;6.674;2023-01-19T05:02:34;7.10;58.50
33105;DHT22;19476;51.448;6.674;2023-01-19T05:05:00;7.10;58.40
33105;DHT22;19476;51.448;6.674;2023-01-19T05:07:25;7.10;58.40
33105;DHT22;19476;51.448;6.674;2023-01-19T05:09:51;7.00;58.50
33105;DHT22;19476;51.448;6.674;2023-01-19T05:12:18;7.00;58.50
33105;DHT22;19476;51.448;6.674;2023-01-19T05:14:44;7.00;58.50
33105;DHT22;19476;51.448;6.674;2023-01-19T05:17:11;6.90;58.60
33105;DHT22;19476;51.448;6.674;2023-01-19T05:19:37;6.90;58.70
33105;DHT22;19476;51.448;6.674;2023-01-19T05:22:04;6.90;58.60
33105;DHT22;19476;51.448;6.674;2023-01-19T05:24:29;6.90;58.90
33105;DHT22;19476;51.448;6.674;2023-01-19T05:26:55;6.90;58.90
33105;DHT22;19476;51.448;6.674;2023-01-19T05:29:21;6.90;59.10
33105;DHT22;19476;51.448;6.674;2023-01-19T05:31:47;6.80;59.10
33105;DHT22;19476;51.448;6.674;2023-01-19T05:34:13;6.80;59.30
33105;DHT22;19476;51.448;6.674;2023-01-19T05:36:39;6.80;59.40
33105;DHT22;19476;51.448;6.674;2023-01-19T05:39:06;6.80;59.40
33105;DHT22;19476;51.448;6.674;2023-01-19T05:41:32;6.80;59.60
33105;DHT22;19476;51.448;6.674;2023-01-19T05:43:57;6.80;59.50
33105;DHT22;19476;51.448;6.674;2023-01-19T05:46:23;6.80;59.60
33105;DHT22;19476;51.448;6.674;2023-01-19T05:48:50;6.80;59.50
33105;DHT22;19476;51.448;6.674;2023-01-19T05:51:16;6.80;59.70
33105;DHT22;19476;51.448;6.674;2023-01-19T05:53:42;6.80;59.80
33105;DHT22;19476;51.448;6.674;2023-01-19T05:56:08;6.80;59.70
33105;DHT22;19476;51.448;6.674;2023-01-19T05:58:35;6.80;59.80
33105;DHT22;19476;51.448;6.674;2023-01-19T06:01:05;6.80;59.90
33105;DHT22;19476;51.448;6.674;2023-01-19T06:03:32;6.80;59.90
33105;DHT22;19476;51.448;6.674;2023-01-19T06:05:58;6.80;60.00
33105;DHT22;19476;51.448;6.674;2023-01-19T06:08:25;6.80;60.00
33105;DHT22;19476;51.448;6.674;2023-01-19T06:10:50;6.80;59.90
33105;DHT22;19476;51.448;6.674;2023-01-19T06:13:16;6.80;60.10
33105;DHT22;19476;51.448;6.674;2023-01-19T06:15:43;6.80;60.10
33105;DHT22;19476;51.448;6.674;2023-01-19T06:18:12;6.90;60.20
33105;DHT22;19476;51.448;6.674;2023-01-19T06:20:41;6.90;60.20
33105;DHT22;19476;51.448;6.674;2023-01-19T06:23:06;6.90;60.10
33105;DHT22;19476;51.448;6.674;2023-01-19T06:25:33;6.90;59.80
33105;DHT22;19476;51.448;6.674;2023-01-19T06:27:59;6.90;59.80
33105;DHT22;19476;51.448;6.674;2023-01-19T06:30:24;7.00;59.90
33105;DHT22;19476;51.448;6.674;2023-01-19T06:32:52;7.00;59.90
33105;DHT22;19476;51.448;6.674;2023-01-19T06:35:18;7.00;59.80
33105;DHT22;19476;51.448;6.674;2023-01-19T06:37:43;7.10;59.90
33105;DHT22;19476;51.448;6.674;2023-01-19T06:40:09;7.10;59.80
33105;DHT22;19476;51.448;6.674;2023-01-19T06:42:36;7.10;59.90
33105;DHT22;19476;51.448;6.674;2023-01-19T06:45:02;7.00;59.80
33105;DHT22;19476;51.448;6.674;2023-01-19T06:47:28;7.00;59.80
33105;DHT22;19476;51.448;6.674;2023-01-19T06:49:54;7.00;60.00
33105;DHT22;19476;51.448;6.674;2023-01-19T06:52:21;7.00;59.90
33105;DHT22;19476;51.448;6.674;2023-01-19T06:54:46;7.00;60.00
33105;DHT22;19476;51.448;6.674;2023-01-19T06:57:12;7.00;60.00
33105;DHT22;19476;51.448;6.674;2023-01-19T06:59:38;7.00;60.00
33105;DHT22;19476;51.448;6.674;2023-01-19T07:02:04;7.00;60.00
33105;DHT22;19476;51.448;6.674;2023-01-19T07:04:30;7.00;60.00
33105;DHT22;19476;51.448;6.674;2023-01-19T07:06:56;7.00;60.00
33105;DHT22;19476;51.448;6.674;2023-01-19T07:09:22;7.10;60.00
33105;DHT22;19476;51.448;6.674;2023-01-19T07:11:50;7.00;60.00
33105;DHT22;19476;51.448;6.674;2023-01-19T07:14:15;7.00;60.00
33105;DHT22;19476;51.448;6.674;2023-01-19T07:16:41;7.00;59.90
33105;DHT22;19476;51.448;6.674;2023-01-19T07:19:07;7.00;59.90
33105;DHT22;19476;51.448;6.674;2023-01-19T07:21:35;7.00;60.00
33105;DHT22;19476;51.448;6.674;2023-01-19T07:24:01;7.00;60.00
33105;DHT22;19476;51.448;6.674;2023-01-19T07:26:27;7.10;60.10
33105;DHT22;19476;51.448;6.674;2023-01-19T07:28:53;7.10;60.00
33105;DHT22;19476;51.448;6.674;2023-01-19T07:31:19;7.10;60.00
33105;DHT22;19476;51.448;6.674;2023-01-19T07:33:45;7.10;60.00
33105;DHT22;19476;51.448;6.674;2023-01-19T07:36:11;7.10;59.90
33105;DHT22;19476;51.448;6.674;2023-01-19T07:38:37;7.10;60.00
33105;DHT22;19476;51.448;6.674;2023-01-19T07:41:05;7.10;60.00
33105;DHT22;19476;51.448;6.674;2023-01-19T07:43:31;7.10;60.00
33105;DHT22;19476;51.448;6.674;2023-01-19T07:45:59;7.10;60.00
33105;DHT22;19476;51.448;6.674;2023-01-19T07:48:25;7.10;60.00
33105;DHT22;19476;51.448;6.674;2023-01-19T07:50:51;7.10;60.10
33105;DHT22;19476;51.448;6.674;2023-01-19T07:53:18;7.00;60.10
33105;DHT22;19476;51.448;6.674;2023-01-19T07:55:44;7.00;60.10
33105;DHT22;19476;51.448;6.674;2023-01-19T07:58:10;7.00;60.10
33105;DHT22;19476;51.448;6.674;2023-01-19T08:00:37;7.10;60.20
33105;DHT22;19476;51.448;6.674;2023-01-19T08:03:03;7.00;60.30
33105;DHT22;19476;51.448;6.674;2023-01-19T08:05:30;7.10;60.30
33105;DHT22;19476;51.448;6.674;2023-01-19T08:07:57;7.10;60.30
33105;DHT22;19476;51.448;6.674;2023-01-19T08:10:25;7.10;60.30
33105;DHT22;19476;51.448;6.674;2023-01-19T08:12:54;7.10;60.40
33105;DHT22;19476;51.448;6.674;2023-01-19T08:15:20;7.10;60.50
33105;DHT22;19476;51.448;6.674;2023-01-19T08:18:01;7.10;60.50
33105;DHT22;19476;51.448;6.674;2023-01-19T08:20:30;7.30;61.00
33105;DHT22;19476;51.448;6.674;2023-01-19T08:22:56;7.10;60.60
33105;DHT22;19476;51.448;6.674;2023-01-19T08:25:35;7.00;60.70
33105;DHT22;19476;51.448;6.674;2023-01-19T08:28:02;7.00;61.10
33105;DHT22;19476;51.448;6.674;2023-01-19T08:30:28;7.00;60.90
33105;DHT22;19476;51.448;6.674;2023-01-19T08:32:55;7.10;61.00
33105;DHT22;19476;51.448;6.674;2023-01-19T08:35:36;7.00;61.00
33105;DHT22;19476;51.448;6.674;2023-01-19T08:38:04;7.10;61.30
33105;DHT22;19476;51.448;6.674;2023-01-19T08:40:31;7.00;61.00
33105;DHT22;19476;51.448;6.674;2023-01-19T08:43:02;7.10;61.10
33105;DHT22;19476;51.448;6.674;2023-01-19T08:45:31;7.10;61.10
33105;DHT22;19476;51.448;6.674;2023-01-19T08:47:57;7.10;61.10
33105;DHT22;19476;51.448;6.674;2023-01-19T08:50:24;7.10;61.10
33105;DHT22;19476;51.448;6.674;2023-01-19T08:52:50;7.10;61.20
33105;DHT22;19476;51.448;6.674;2023-01-19T08:55:16;7.10;61.10
33105;DHT22;19476;51.448;6.674;2023-01-19T08:57:42;7.10;61.20
33105;DHT22;19476;51.448;6.674;2023-01-19T09:00:09;7.10;61.20
33105;DHT22;19476;51.448;6.674;2023-01-19T09:02:36;7.10;61.20
33105;DHT22;19476;51.448;6.674;2023-01-19T09:05:02;7.10;61.30
33105;DHT22;19476;51.448;6.674;2023-01-19T09:07:29;7.10;61.20
33105;DHT22;19476;51.448;6.674;2023-01-19T09:09:55;7.10;61.20
33105;DHT22;19476;51.448;6.674;2023-01-19T09:12:21;7.10;61.20
33105;DHT22;19476;51.448;6.674;2023-01-19T09:14:50;7.10;61.10
33105;DHT22;19476;51.448;6.674;2023-01-19T09:17:15;7.10;61.20
33105;DHT22;19476;51.448;6.674;2023-01-19T09:19:42;7.10;61.20
33105;DHT22;19476;51.448;6.674;2023-01-19T09:22:08;7.10;61.20
33105;DHT22;19476;51.448;6.674;2023-01-19T09:24:34;7.10;61.20
33105;DHT22;19476;51.448;6.674;2023-01-19T09:27:01;7.10;61.20
33105;DHT22;19476;51.448;6.674;2023-01-19T09:29:27;7.20;61.40
33105;DHT22;19476;51.448;6.674;2023-01-19T09:31:52;7.20;61.40
33105;DHT22;19476;51.448;6.674;2023-01-19T09:34:22;7.20;61.40
33105;DHT22;19476;51.448;6.674;2023-01-19T09:36:53;7.20;61.50
33105;DHT22;19476;51.448;6.674;2023-01-19T09:39:19;7.20;61.50
33105;DHT22;19476;51.448;6.674;2023-01-19T09:41:55;7.20;61.40
33105;DHT22;19476;51.448;6.674;2023-01-19T09:44:32;7.20;61.50
33105;DHT22;19476;51.448;6.674;2023-01-19T09:47:02;7.30;61.60
33105;DHT22;19476;51.448;6.674;2023-01-19T09:49:43;7.30;61.50
33105;DHT22;19476;51.448;6.674;2023-01-19T09:52:13;7.30;61.40
33105;DHT22;19476;51.448;6.674;2023-01-19T09:54:55;7.30;61.40
33105;DHT22;19476;51.448;6.674;2023-01-19T09:57:22;7.30;61.50
33105;DHT22;19476;51.448;6.674;2023-01-19T09:59:48;7.30;61.40
33105;DHT22;19476;51.448;6.674;2023-01-19T10:08:35;7.30;61.90
33105;DHT22;19476;51.448;6.674;2023-01-19T10:11:25;7.30;61.90
33105;DHT22;19476;51.448;6.674;2023-01-19T10:13:55;7.30;61.70
33105;DHT22;19476;51.448;6.674;2023-01-19T10:16:52;7.30;61.50
33105;DHT22;19476;51.448;6.674;2023-01-19T10:19:34;7.40;61.90
33105;DHT22;19476;51.448;6.674;2023-01-19T10:22:21;7.40;61.80
33105;DHT22;19476;51.448;6.674;2023-01-19T10:24:53;7.40;61.90
33105;DHT22;19476;51.448;6.674;2023-01-19T10:27:29;7.50;61.80
33105;DHT22;19476;51.448;6.674;2023-01-19T10:29:56;7.50;61.70
33105;DHT22;19476;51.448;6.674;2023-01-19T10:32:29;7.60;61.60
33105;DHT22;19476;51.448;6.674;2023-01-19T10:34:57;7.60;61.70
33105;DHT22;19476;51.448;6.674;2023-01-19T10:42:39;7.70;61.30
33105;DHT22;19476;51.448;6.674;2023-01-19T10:45:23;7.80;61.10
33105;DHT22;19476;51.448;6.674;2023-01-19T10:47:54;7.80;61.20
33105;DHT22;19476;51.448;6.674;2023-01-19T10:52:53;7.80;60.80
33105;DHT22;19476;51.448;6.674;2023-01-19T10:55:27;7.80;60.80
33105;DHT22;19476;51.448;6.674;2023-01-19T10:58:02;7.90;60.80
33105;DHT22;19476;51.448;6.674;2023-01-19T11:03:03;7.90;60.50
33105;DHT22;19476;51.448;6.674;2023-01-19T11:05:33;8.00;60.60
33105;DHT22;19476;51.448;6.674;2023-01-19T11:07:59;7.90;60.40
33105;DHT22;19476;51.448;6.674;2023-01-19T11:10:31;7.90;60.30
33105;DHT22;19476;51.448;6.674;2023-01-19T11:13:09;8.00;60.50
33105;DHT22;19476;51.448;6.674;2023-01-19T11:15:47;8.00;60.50
33105;DHT22;19476;51.448;6.674;2023-01-19T11:18:36;8.00;60.40
33105;DHT22;19476;51.448;6.674;2023-01-19T11:21:09;7.90;60.30
33105;DHT22;19476;51.448;6.674;2023-01-19T11:23:55;7.90;60.20
33105;DHT22;19476;51.448;6.674;2023-01-19T11:26:46;7.90;60.30
33105;DHT22;19476;51.448;6.674;2023-01-19T11:29:31;7.90;60.50
33105;DHT22;19476;51.448;6.674;2023-01-19T11:32:10;7.90;60.50
33105;DHT22;19476;51.448;6.674;2023-01-19T11:34:39;7.90;60.50
33105;DHT22;19476;51.448;6.674;2023-01-19T11:39:53;7.80;60.60
33105;DHT22;19476;51.448;6.674;2023-01-19T11:42:20;7.80;60.60
33105;DHT22;19476;51.448;6.674;2023-01-19T11:47:44;7.80;60.60
33105;DHT22;19476;51.448;6.674;2023-01-19T11:50:26;7.80;61.00
33105;DHT22;19476;51.448;6.674;2023-01-19T11:55:54;7.80;60.60
33105;DHT22;19476;51.448;6.674;2023-01-19T11:58:22;7.80;60.60
33105;DHT22;19476;51.448;6.674;2023-01-19T12:03:30;7.80;60.60
33105;DHT22;19476;51.448;6.674;2023-01-19T12:06:02;7.80;60.80
33105;DHT22;19476;51.448;6.674;2023-01-19T12:08:36;7.90;60.70
33105;DHT22;19476;51.448;6.674;2023-01-19T12:11:05;7.90;60.80
33105;DHT22;19476;51.448;6.674;2023-01-19T12:13:34;7.90;60.70
33105;DHT22;19476;51.448;6.674;2023-01-19T12:16:06;7.90;60.60
33105;DHT22;19476;51.448;6.674;2023-01-19T12:18:45;7.90;60.50
33105;DHT22;19476;51.448;6.674;2023-01-19T12:21:15;7.90;60.50
33105;DHT22;19476;51.448;6.674;2023-01-19T12:29:18;8.00;60.90
33105;DHT22;19476;51.448;6.674;2023-01-19T12:34:39;8.10;60.50
33105;DHT22;19476;51.448;6.674;2023-01-19T12:39:51;8.10;60.00
33105;DHT22;19476;51.448;6.674;2023-01-19T12:42:22;8.10;59.90
33105;DHT22;19476;51.448;6.674;2023-01-19T12:45:19;8.20;60.00
33105;DHT22;19476;51.448;6.674;2023-01-19T12:47:52;8.20;60.10
33105;DHT22;19476;51.448;6.674;2023-01-19T12:50:21;8.20;59.90
33105;DHT22;19476;51.448;6.674;2023-01-19T12:52:56;8.30;59.90
33105;DHT22;19476;51.448;6.674;2023-01-19T12:58:11;8.30;59.60
33105;DHT22;19476;51.448;6.674;2023-01-19T13:00:41;8.40;60.00
33105;DHT22;19476;51.448;6.674;2023-01-19T13:14:43;8.80;60.00
33105;DHT22;19476;51.448;6.674;2023-01-19T13:17:23;8.90;59.60
33105;DHT22;19476;51.448;6.674;2023-01-19T13:20:16;9.00;59.00
33105;DHT22;19476;51.448;6.674;2023-01-19T13:25:49;9.10;58.60
33105;DHT22;19476;51.448;6.674;2023-01-19T13:28:18;9.10;58.20
33105;DHT22;19476;51.448;6.674;2023-01-19T13:30:58;9.20;58.20
33105;DHT22;19476;51.448;6.674;2023-01-19T13:33:31;9.20;58.10
33105;DHT22;19476;51.448;6.674;2023-01-19T13:39:25;9.30;57.20
33105;DHT22;19476;51.448;6.674;2023-01-19T13:41:55;9.20;56.80
33105;DHT22;19476;51.448;6.674;2023-01-19T13:44:52;9.20;57.10
33105;DHT22;19476;51.448;6.674;2023-01-19T13:47:21;9.20;56.50
33105;DHT22;19476;51.448;6.674;2023-01-19T13:49:51;9.10;56.80
33105;DHT22;19476;51.448;6.674;2023-01-19T13:52:25;9.10;56.70
33105;DHT22;19476;51.448;6.674;2023-01-19T13:54:57;9.10;56.60
33105;DHT22;19476;51.448;6.674;2023-01-19T14:02:36;9.00;56.80
33105;DHT22;19476;51.448;6.674;2023-01-19T14:05:13;8.90;56.80
33105;DHT22;19476;51.448;6.674;2023-01-19T14:07:41;8.90;57.10
33105;DHT22;19476;51.448;6.674;2023-01-19T14:10:14;8.90;57.30
33105;DHT22;19476;51.448;6.674;2023-01-19T14:12:42;8.90;57.30
33105;DHT22;19476;51.448;6.674;2023-01-19T14:15:12;8.90;57.30
33105;DHT22;19476;51.448;6.674;2023-01-19T14:17:40;8.90;57.30
33105;DHT22;19476;51.448;6.674;2023-01-19T14:20:27;8.90;57.40
33105;DHT22;19476;51.448;6.674;2023-01-19T14:22:54;9.00;57.80
33105;DHT22;19476;51.448;6.674;2023-01-19T14:27:50;9.00;57.20
33105;DHT22;19476;51.448;6.674;2023-01-19T14:30:22;9.10;57.00
33105;DHT22;19476;51.448;6.674;2023-01-19T14:32:55;9.10;57.00
33105;DHT22;19476;51.448;6.674;2023-01-19T14:35:26;9.10;57.00
33105;DHT22;19476;51.448;6.674;2023-01-19T14:37:55;9.10;56.90
33105;DHT22;19476;51.448;6.674;2023-01-19T14:40:24;9.10;56.70
33105;DHT22;19476;51.448;6.674;2023-01-19T14:42:57;9.10;56.50
33105;DHT22;19476;51.448;6.674;2023-01-19T14:45:36;9.10;56.40
33105;DHT22;19476;51.448;6.674;2023-01-19T14:48:14;9.10;56.20
33105;DHT22;19476;51.448;6.674;2023-01-19T14:50:42;9.10;56.00
33105;DHT22;19476;51.448;6.674;2023-01-19T14:53:19;9.10;55.90
33105;DHT22;19476;51.448;6.674;2023-01-19T14:55:51;9.00;55.30
33105;DHT22;19476;51.448;6.674;2023-01-19T14:58:20;9.40;55.70
33105;DHT22;19476;51.448;6.674;2023-01-19T15:00:47;9.00;55.60
33105;DHT22;19476;51.448;6.674;2023-01-19T15:03:13;9.00;55.70
33105;DHT22;19476;51.448;6.674;2023-01-19T15:05:41;9.00;55.80
33105;DHT22;19476;51.448;6.674;2023-01-19T15:08:19;8.90;55.80
33105;DHT22;19476;51.448;6.674;2023-01-19T15:10:47;9.00;56.00
33105;DHT22;19476;51.448;6.674;2023-01-19T15:13:21;9.00;55.90
33105;DHT22;19476;51.448;6.674;2023-01-19T15:15:50;9.10;55.70
33105;DHT22;19476;51.448;6.674;2023-01-19T15:18:21;9.00;55.70
33105;DHT22;19476;51.448;6.674;2023-01-19T15:20:48;9.00;55.30
33105;DHT22;19476;51.448;6.674;2023-01-19T15:23:14;9.10;55.20
33105;DHT22;19476;51.448;6.674;2023-01-19T15:25:40;9.00;55.20
33105;DHT22;19476;51.448;6.674;2023-01-19T15:28:19;9.00;55.10
33105;DHT22;19476;51.448;6.674;2023-01-19T15:30:48;8.90;54.90
33105;DHT22;19476;51.448;6.674;2023-01-19T15:33:22;8.90;54.90
33105;DHT22;19476;51.448;6.674;2023-01-19T15:35:49;8.90;54.90
33105;DHT22;19476;51.448;6.674;2023-01-19T15:38:15;8.80;54.90
33105;DHT22;19476;51.448;6.674;2023-01-19T15:40:41;8.80;55.00
33105;DHT22;19476;51.448;6.674;2023-01-19T15:43:10;8.70;55.00
33105;DHT22;19476;51.448;6.674;2023-01-19T15:45:41;8.70;55.30
33105;DHT22;19476;51.448;6.674;2023-01-19T15:48:10;8.70;55.50
33105;DHT22;19476;51.448;6.674;2023-01-19T15:50:46;8.70;55.50
33105;DHT22;19476;51.448;6.674;2023-01-19T15:53:18;8.70;55.60
33105;DHT22;19476;51.448;6.674;2023-01-19T15:55:48;8.70;55.70
33105;DHT22;19476;51.448;6.674;2023-01-19T15:58:14;8.70;55.40
33105;DHT22;19476;51.448;6.674;2023-01-19T16:00:40;8.70;55.20
33105;DHT22;19476;51.448;6.674;2023-01-19T16:03:06;8.70;55.10
33105;DHT22;19476;51.448;6.674;2023-01-19T16:05:32;8.60;55.50
33105;DHT22;19476;51.448;6.674;2023-01-19T16:07:58;8.60;54.90
33105;DHT22;19476;51.448;6.674;2023-01-19T16:10:24;8.60;55.00
33105;DHT22;19476;51.448;6.674;2023-01-19T16:12:50;8.60;55.20
33105;DHT22;19476;51.448;6.674;2023-01-19T16:15:16;8.60;55.20
33105;DHT22;19476;51.448;6.674;2023-01-19T16:17:44;8.60;55.30
33105;DHT22;19476;51.448;6.674;2023-01-19T16:20:10;8.60;55.20
33105;DHT22;19476;51.448;6.674;2023-01-19T16:22:36;8.50;55.30
33105;DHT22;19476;51.448;6.674;2023-01-19T16:25:03;8.50;55.30
33105;DHT22;19476;51.448;6.674;2023-01-19T16:27:29;8.60;55.40
33105;DHT22;19476;51.448;6.674;2023-01-19T16:29:55;8.60;56.00
33105;DHT22;19476;51.448;6.674;2023-01-19T16:32:24;8.50;55.40
33105;DHT22;19476;51.448;6.674;2023-01-19T16:34:50;8.50;55.40
33105;DHT22;19476;51.448;6.674;2023-01-19T16:37:15;8.50;55.40
33105;DHT22;19476;51.448;6.674;2023-01-19T16:39:41;8.50;55.40
33105;DHT22;19476;51.448;6.674;2023-01-19T16:42:10;8.50;55.50
33105;DHT22;19476;51.448;6.674;2023-01-19T16:44:35;8.50;55.50
33105;DHT22;19476;51.448;6.674;2023-01-19T16:47:01;8.50;55.60
33105;DHT22;19476;51.448;6.674;2023-01-19T16:49:30;8.50;55.70
33105;DHT22;19476;51.448;6.674;2023-01-19T16:51:57;8.50;55.80
33105;DHT22;19476;51.448;6.674;2023-01-19T16:54:25;8.50;55.80
33105;DHT22;19476;51.448;6.674;2023-01-19T16:56:52;8.50;56.00
33105;DHT22;19476;51.448;6.674;2023-01-19T16:59:19;8.50;56.00
33105;DHT22;19476;51.448;6.674;2023-01-19T17:01:47;8.50;56.00
33105;DHT22;19476;51.448;6.674;2023-01-19T17:04:16;8.60;56.00
33105;DHT22;19476;51.448;6.674;2023-01-19T17:06:42;8.60;55.90
33105;DHT22;19476;51.448;6.674;2023-01-19T17:09:09;8.60;55.80
33105;DHT22;19476;51.448;6.674;2023-01-19T17:11:35;8.70;55.60
33105;DHT22;19476;51.448;6.674;2023-01-19T17:14:04;8.70;55.50
33105;DHT22;19476;51.448;6.674;2023-01-19T17:16:32;8.70;55.40
33105;DHT22;19476;51.448;6.674;2023-01-19T17:19:00;8.70;55.40